Time;durP1;ratioP1;P1;durP2;ratioP2;P2;SDS_P1;SDS_P2;PMS_P1;PMS_P2;Temp;Humidity;BMP_temperature;BMP_pressure;BME280_temperature;BME280_humidity;BME280_pressure;Samples;Min_cycle;Max_cycle;Signal;HPM_P1;HPM_P2
2024/01/11 00:00:00;;;;;;;;;;;16.50;41.70;;;;;;1604947;73;1518;-73
2024/01/11 00:02:02;;;;;;;;;;;16.50;41.70;;;;;;1601279;73;1930;-75
2024/01/11 00:04:04;;;;;;;;;;;16.50;41.70;;;;;;1593627;73;686;-72
2024/01/11 00:06:06;;;;;;;;;;;16.40;41.70;;;;;;1599393;73;1166;-75
2024/01/11 00:08:08;;;;;;;;;;;16.50;41.80;;;;;;1600439;73;725;-72
2024/01/11 00:10:10;;;;;;;;;;;16.50;41.70;;;;;;1598553;73;806;-74
2024/01/11 00:12:12;;;;;;;;;;;16.50;41.70;;;;;;1606757;73;677;-75
2024/01/11 00:14:13;;;;;;;;;;;16.50;41.70;;;;;;1598839;73;657;-73
2024/01/11 00:16:15;;;;;;;;;;;16.50;41.70;;;;;;1613657;72;1131;-73
2024/01/11 00:18:17;;;;;;;;;;;16.10;41.40;;;;;;1602169;73;714;-73
2024/01/11 00:20:19;;;;;;;;;;;16.30;41.50;;;;;;1612396;72;756;-75
2024/01/11 00:22:21;;;;;;;;;;;16.50;41.70;;;;;;1603255;73;1930;-74
2024/01/11 00:24:23;;;;;;;;;;;16.50;41.60;;;;;;1601575;73;728;-73
2024/01/11 00:26:25;;;;;;;;;;;16.50;41.60;;;;;;1593278;73;1146;-75
2024/01/11 00:28:27;;;;;;;;;;;16.50;41.60;;;;;;1605637;73;744;-74
2024/01/11 00:30:28;;;;;;;;;;;16.50;41.60;;;;;;1606095;73;779;-74
2024/01/11 00:32:30;;;;;;;;;;;16.50;41.50;;;;;;1603925;73;777;-72
2024/01/11 00:34:32;;;;;;;;;;;16.60;41.50;;;;;;1606387;73;656;-73
2024/01/11 00:36:34;;;;;;;;;;;16.60;41.50;;;;;;1593492;73;1149;-76
2024/01/11 00:38:36;;;;;;;;;;;16.60;41.50;;;;;;1607958;73;659;-74
2024/01/11 00:40:38;;;;;;;;;;;16.60;41.50;;;;;;1612854;73;947;-72
2024/01/11 00:42:40;;;;;;;;;;;16.60;41.40;;;;;;1600688;73;1923;-72
2024/01/11 00:44:42;;;;;;;;;;;16.60;41.40;;;;;;1588586;73;799;-72
2024/01/11 00:46:43;;;;;;;;;;;16.60;41.40;;;;;;1599842;73;1146;-74
2024/01/11 00:48:46;;;;;;;;;;;16.60;41.40;;;;;;1594926;73;571;-73
2024/01/11 00:50:48;;;;;;;;;;;16.60;41.40;;;;;;1597601;73;766;-73
2024/01/11 00:52:49;;;;;;;;;;;16.60;41.40;;;;;;1592998;73;641;-75
2024/01/11 00:54:51;;;;;;;;;;;16.60;41.30;;;;;;1609462;73;711;-75
2024/01/11 00:56:53;;;;;;;;;;;16.60;41.40;;;;;;1608094;73;1471;-70
2024/01/11 00:58:55;;;;;;;;;;;16.60;41.30;;;;;;1611927;73;782;-75
2024/01/11 01:00:57;;;;;;;;;;;16.60;41.40;;;;;;1606609;73;796;-74
2024/01/11 01:02:59;;;;;;;;;;;16.60;41.30;;;;;;1607712;73;1945;-71
2024/01/11 01:05:01;;;;;;;;;;;16.60;41.40;;;;;;1596645;73;768;-75
2024/01/11 01:07:02;;;;;;;;;;;16.60;41.40;;;;;;1598113;73;1124;-75
2024/01/11 01:09:04;;;;;;;;;;;16.60;41.40;;;;;;1592351;73;711;-75
2024/01/11 01:11:06;;;;;;;;;;;16.60;41.40;;;;;;1591721;73;727;-75
2024/01/11 01:13:08;;;;;;;;;;;16.60;41.40;;;;;;1592112;73;661;-76
2024/01/11 01:15:10;;;;;;;;;;;16.60;41.40;;;;;;1591137;73;675;-75
2024/01/11 01:17:12;;;;;;;;;;;16.60;41.30;;;;;;1596243;73;1124;-72
2024/01/11 01:19:14;;;;;;;;;;;16.60;41.30;;;;;;1601840;73;675;-74
2024/01/11 01:21:16;;;;;;;;;;;16.60;41.30;;;;;;1596043;73;706;-73
2024/01/11 01:23:18;;;;;;;;;;;16.60;41.40;;;;;;1602717;73;1979;-74
2024/01/11 01:25:20;;;;;;;;;;;16.60;41.40;;;;;;1594224;73;801;-76
2024/01/11 01:27:21;;;;;;;;;;;16.60;41.30;;;;;;1606590;73;1165;-71
2024/01/11 01:29:23;;;;;;;;;;;16.60;41.30;;;;;;1600832;73;771;-71
2024/01/11 01:31:25;;;;;;;;;;;16.60;41.30;;;;;;1600348;73;763;-72
2024/01/11 01:33:27;;;;;;;;;;;16.50;41.30;;;;;;1607099;73;718;-70
2024/01/11 01:35:29;;;;;;;;;;;16.60;41.30;;;;;;1598108;73;757;-70
2024/01/11 01:37:31;;;;;;;;;;;16.60;41.30;;;;;;1602212;73;1112;-72
2024/01/11 01:39:33;;;;;;;;;;;16.60;41.30;;;;;;1589806;73;632;-75
2024/01/11 01:41:35;;;;;;;;;;;16.60;41.40;;;;;;1593483;73;1930;-76
2024/01/11 01:43:37;;;;;;;;;;;16.60;41.30;;;;;;1603777;73;714;-73
2024/01/11 01:45:38;;;;;;;;;;;16.60;41.30;;;;;;1599669;73;673;-73
2024/01/11 01:47:40;;;;;;;;;;;16.60;41.30;;;;;;1593031;73;1096;-74
2024/01/11 01:49:43;;;;;;;;;;;16.60;41.30;;;;;;1593398;73;628;-70
2024/01/11 01:51:45;;;;;;;;;;;16.60;41.30;;;;;;1593695;73;1269;-72
2024/01/11 01:53:46;;;;;;;;;;;16.60;41.40;;;;;;1596075;73;669;-73
2024/01/11 01:55:48;;;;;;;;;;;16.60;41.30;;;;;;1608347;73;769;-72
2024/01/11 01:57:50;;;;;;;;;;;16.60;41.30;;;;;;1615407;73;1081;-75
2024/01/11 01:59:52;;;;;;;;;;;16.60;41.30;;;;;;1608558;73;633;-75
2024/01/11 02:01:54;;;;;;;;;;;16.60;41.40;;;;;;1603653;73;1938;-73
2024/01/11 02:03:56;;;;;;;;;;;16.60;41.30;;;;;;1594729;73;620;-73
2024/01/11 02:05:58;;;;;;;;;;;16.60;41.30;;;;;;1603106;73;1147;-74
2024/01/11 02:08:00;;;;;;;;;;;16.60;41.30;;;;;;1610606;73;787;-73
2024/01/11 02:10:02;;;;;;;;;;;16.60;41.30;;;;;;1605901;73;672;-70
2024/01/11 02:12:04;;;;;;;;;;;16.60;41.30;;;;;;1609835;73;745;-74
2024/01/11 02:14:07;;;;;;;;;;;16.50;41.30;;;;;;1604215;73;643;-75
2024/01/11 02:16:09;;;;;;;;;;;16.60;41.30;;;;;;1608994;73;1120;-74
2024/01/11 02:18:11;;;;;;;;;;;16.60;41.30;;;;;;1594158;73;737;-74
2024/01/11 02:20:13;;;;;;;;;;;16.50;41.40;;;;;;1587966;73;709;-73
2024/01/11 02:22:22;;;;;;;;;;;16.60;41.30;;;;;;1593634;73;1952;-73
2024/01/11 02:24:24;;;;;;;;;;;16.60;41.30;;;;;;1594920;73;1424;-75
2024/01/11 02:26:26;;;;;;;;;;;16.60;41.40;;;;;;1597585;73;1144;-75
2024/01/11 02:28:28;;;;;;;;;;;16.60;41.40;;;;;;1611547;73;559;-73
2024/01/11 02:30:30;;;;;;;;;;;16.60;41.30;;;;;;1596534;73;756;-73
2024/01/11 02:32:32;;;;;;;;;;;16.60;41.40;;;;;;1613364;73;746;-74
2024/01/11 02:34:33;;;;;;;;;;;16.60;41.40;;;;;;1599566;73;701;-74
2024/01/11 02:36:35;;;;;;;;;;;16.60;41.40;;;;;;1597260;73;1152;-73
2024/01/11 02:38:37;;;;;;;;;;;16.60;41.50;;;;;;1598463;73;713;-75
2024/01/11 02:40:39;;;;;;;;;;;16.60;41.40;;;;;;1601685;73;728;-71
2024/01/11 02:42:41;;;;;;;;;;;16.60;41.40;;;;;;1591567;73;1924;-73
2024/01/11 02:44:43;;;;;;;;;;;16.60;41.40;;;;;;1600697;73;732;-73
2024/01/11 02:46:45;;;;;;;;;;;16.60;41.40;;;;;;1599421;73;1125;-73
2024/01/11 02:48:46;;;;;;;;;;;16.60;41.40;;;;;;1599110;73;1505;-74
2024/01/11 02:50:51;;;;;;;;;;;16.60;41.40;;;;;;1594118;73;729;-74
2024/01/11 02:52:53;;;;;;;;;;;16.60;41.40;;;;;;1595725;73;637;-73
2024/01/11 02:54:55;;;;;;;;;;;16.60;41.40;;;;;;1599902;72;731;-75
2024/01/11 02:56:57;;;;;;;;;;;16.60;41.40;;;;;;1599940;73;1127;-74
2024/01/11 02:58:59;;;;;;;;;;;16.60;41.40;;;;;;1600154;73;829;-75
2024/01/11 03:01:00;;;;;;;;;;;16.60;41.50;;;;;;1604215;73;638;-73
2024/01/11 03:03:02;;;;;;;;;;;16.60;41.50;;;;;;1601406;73;1926;-75
2024/01/11 03:05:04;;;;;;;;;;;16.60;41.40;;;;;;1607705;73;704;-74
2024/01/11 03:07:06;;;;;;;;;;;16.60;41.40;;;;;;1598316;73;1144;-74
2024/01/11 03:09:08;;;;;;;;;;;16.60;41.50;;;;;;1602809;73;604;-73
2024/01/11 03:11:10;;;;;;;;;;;16.60;41.50;;;;;;1602440;73;772;-74
2024/01/11 03:13:12;;;;;;;;;;;16.50;41.50;;;;;;1591713;73;756;-72
2024/01/11 03:15:15;;;;;;;;;;;16.60;41.50;;;;;;1607974;73;721;-72
2024/01/11 03:17:17;;;;;;;;;;;16.50;41.50;;;;;;1599512;73;1137;-73
2024/01/11 03:19:18;;;;;;;;;;;16.60;41.50;;;;;;1607365;73;713;-75
2024/01/11 03:21:20;;;;;;;;;;;16.50;41.50;;;;;;1604462;73;735;-76
2024/01/11 03:23:22;;;;;;;;;;;16.60;41.50;;;;;;1606342;73;1932;-76
2024/01/11 03:25:24;;;;;;;;;;;16.50;41.50;;;;;;1587629;73;716;-72
2024/01/11 03:27:26;;;;;;;;;;;16.50;41.50;;;;;;1590933;73;1164;-74
2024/01/11 03:29:28;;;;;;;;;;;16.60;41.50;;;;;;1595225;73;703;-75
2024/01/11 03:31:30;;;;;;;;;;;16.50;41.50;;;;;;1600655;73;844;-73
2024/01/11 03:33:32;;;;;;;;;;;16.50;41.50;;;;;;1602137;73;790;-73
2024/01/11 03:35:33;;;;;;;;;;;16.50;41.50;;;;;;1610420;73;660;-74
2024/01/11 03:37:35;;;;;;;;;;;16.50;41.50;;;;;;1601990;73;1112;-76
2024/01/11 03:39:37;;;;;;;;;;;16.50;41.50;;;;;;1603258;73;751;-75
2024/01/11 03:41:41;;;;;;;;;;;16.50;41.50;;;;;;1594327;73;593;-71
2024/01/11 03:43:43;;;;;;;;;;;16.50;41.50;;;;;;1599343;73;1941;-75
2024/01/11 03:45:44;;;;;;;;;;;16.50;41.50;;;;;;1594122;73;1567;-72
2024/01/11 03:47:46;;;;;;;;;;;16.50;41.50;;;;;;1599380;73;1131;-74
2024/01/11 03:49:48;;;;;;;;;;;16.50;41.50;;;;;;1597730;72;690;-72
2024/01/11 03:51:50;;;;;;;;;;;16.50;41.50;;;;;;1603571;73;623;-73
2024/01/11 03:53:52;;;;;;;;;;;16.50;41.50;;;;;;1596911;73;772;-75
2024/01/11 03:55:54;;;;;;;;;;;16.50;41.50;;;;;;1589692;73;695;-73
2024/01/11 03:57:56;;;;;;;;;;;16.50;41.50;;;;;;1611231;73;1143;-74
2024/01/11 03:59:58;;;;;;;;;;;16.50;41.50;;;;;;1603855;73;778;-73
2024/01/11 04:02:00;;;;;;;;;;;16.50;41.50;;;;;;1595304;73;704;-73
2024/01/11 04:04:02;;;;;;;;;;;16.50;41.50;;;;;;1596470;73;1942;-72
2024/01/11 04:06:04;;;;;;;;;;;16.50;41.50;;;;;;1596008;73;1187;-75
2024/01/11 04:08:07;;;;;;;;;;;16.50;41.50;;;;;;1602490;73;706;-72
2024/01/11 04:10:13;;;;;;;;;;;16.50;41.50;;;;;;1600554;73;709;-76
2024/01/11 04:12:12;;;;;;;;;;;16.50;41.50;;;;;;1592795;73;1405;-75
2024/01/11 04:14:14;;;;;;;;;;;16.50;41.50;;;;;;1604262;73;679;-74
2024/01/11 04:16:16;;;;;;;;;;;16.50;41.60;;;;;;1595609;73;1155;-72
2024/01/11 04:18:18;;;;;;;;;;;16.50;41.50;;;;;;1602913;73;577;-73
2024/01/11 04:20:20;;;;;;;;;;;16.40;41.50;;;;;;1596446;73;727;-75
2024/01/11 04:22:21;;;;;;;;;;;16.50;41.50;;;;;;1598300;73;614;-76
2024/01/11 04:24:23;;;;;;;;;;;16.50;41.60;;;;;;1600353;73;1964;-71
2024/01/11 04:26:25;;;;;;;;;;;16.50;41.60;;;;;;1601101;73;1162;-77
2024/01/11 04:28:28;;;;;;;;;;;16.40;41.50;;;;;;1597566;73;744;-75
2024/01/11 04:30:29;;;;;;;;;;;16.50;41.50;;;;;;1600182;73;708;-73
2024/01/11 04:32:31;;;;;;;;;;;16.50;41.50;;;;;;1590908;73;757;-73
2024/01/11 04:34:33;;;;;;;;;;;16.40;41.50;;;;;;1606445;73;735;-73
2024/01/11 04:36:37;;;;;;;;;;;16.40;41.50;;;;;;1597001;73;1109;-71
2024/01/11 04:38:38;;;;;;;;;;;16.50;41.60;;;;;;1601966;73;610;-72
2024/01/11 04:40:40;;;;;;;;;;;16.50;41.60;;;;;;1603693;73;1446;-74
2024/01/11 04:42:42;;;;;;;;;;;16.50;41.50;;;;;;1592360;73;1929;-72
2024/01/11 04:44:44;;;;;;;;;;;16.50;41.50;;;;;;1596748;73;731;-73
2024/01/11 04:46:46;;;;;;;;;;;16.50;41.50;;;;;;1602270;73;1119;-73
2024/01/11 04:48:53;;;;;;;;;;;16.40;41.40;;;;;;1601374;73;655;-75
2024/01/11 04:50:51;;;;;;;;;;;16.50;41.50;;;;;;1596697;73;1103;-70
2024/01/11 04:52:53;;;;;;;;;;;16.50;41.50;;;;;;1592548;73;744;-70
2024/01/11 04:54:55;;;;;;;;;;;16.50;41.40;;;;;;1587939;73;687;-70
2024/01/11 04:56:57;;;;;;;;;;;16.50;41.50;;;;;;1597905;73;1139;-70
2024/01/11 04:58:59;;;;;;;;;;;16.50;41.50;;;;;;1592652;73;755;-74
2024/01/11 05:01:01;;;;;;;;;;;16.50;41.50;;;;;;1593984;73;669;-73
2024/01/11 05:03:03;;;;;;;;;;;16.50;41.40;;;;;;1604421;73;1929;-71
2024/01/11 05:05:06;;;;;;;;;;;16.50;41.40;;;;;;1596986;73;761;-76
2024/01/11 05:07:07;;;;;;;;;;;16.60;41.40;;;;;;1586112;73;1122;-70
2024/01/11 05:09:09;;;;;;;;;;;16.60;41.40;;;;;;1602878;73;618;-75
2024/01/11 05:11:20;;;;;;;;;;;16.50;41.40;;;;;;1598328;73;726;-76
2024/01/11 05:13:22;;;;;;;;;;;16.60;41.30;;;;;;1603510;73;618;-74
2024/01/11 05:15:24;;;;;;;;;;;16.60;41.40;;;;;;1598990;73;598;-73
2024/01/11 05:17:27;;;;;;;;;;;16.60;41.40;;;;;;1587516;73;1127;-71
2024/01/11 05:19:28;;;;;;;;;;;16.60;41.40;;;;;;1600067;73;659;-73
2024/01/11 05:21:30;;;;;;;;;;;16.60;41.30;;;;;;1599365;73;713;-72
2024/01/11 05:23:32;;;;;;;;;;;16.60;41.40;;;;;;1601487;73;1934;-72
2024/01/11 05:25:34;;;;;;;;;;;16.50;41.30;;;;;;1603494;73;614;-71
2024/01/11 05:27:36;;;;;;;;;;;16.60;41.30;;;;;;1574935;73;1276;-77
2024/01/11 05:29:38;;;;;;;;;;;16.60;41.40;;;;;;1604996;73;762;-74
2024/01/11 05:31:40;;;;;;;;;;;16.60;41.40;;;;;;1600123;73;625;-75
2024/01/11 05:33:42;;;;;;;;;;;16.60;41.30;;;;;;1601538;73;728;-73
2024/01/11 05:35:44;;;;;;;;;;;16.60;41.30;;;;;;1602341;73;631;-74
2024/01/11 05:37:46;;;;;;;;;;;16.60;41.30;;;;;;1597921;73;1495;-75
2024/01/11 05:39:47;;;;;;;;;;;16.60;41.30;;;;;;1592771;73;707;-73
2024/01/11 05:41:49;;;;;;;;;;;16.60;41.30;;;;;;1602400;73;633;-75
2024/01/11 05:43:51;;;;;;;;;;;16.60;41.30;;;;;;1594759;73;1939;-73
2024/01/11 05:45:53;;;;;;;;;;;16.50;41.30;;;;;;1587701;73;697;-76
2024/01/11 05:47:55;;;;;;;;;;;16.60;41.30;;;;;;1605870;73;1183;-74
2024/01/11 05:49:57;;;;;;;;;;;16.50;41.30;;;;;;1604278;73;744;-73
2024/01/11 05:51:59;;;;;;;;;;;16.60;41.30;;;;;;1602996;73;708;-75
2024/01/11 05:54:00;;;;;;;;;;;16.50;41.30;;;;;;1601906;73;696;-72
2024/01/11 05:56:03;;;;;;;;;;;16.50;41.30;;;;;;1606677;73;1143;-74
2024/01/11 05:58:04;;;;;;;;;;;16.50;41.30;;;;;;1607803;73;577;-72
2024/01/11 06:00:06;;;;;;;;;;;16.60;41.30;;;;;;1606183;73;664;-72
2024/01/11 06:02:08;;;;;;;;;;;16.60;41.30;;;;;;1599737;73;647;-75
2024/01/11 06:04:10;;;;;;;;;;;16.50;41.30;;;;;;1601429;73;1934;-75
2024/01/11 06:06:12;;;;;;;;;;;16.50;41.30;;;;;;1599485;73;1201;-72
2024/01/11 06:08:14;;;;;;;;;;;16.60;41.30;;;;;;1604865;73;711;-74
2024/01/11 06:10:16;;;;;;;;;;;16.60;41.30;;;;;;1600344;73;588;-73
2024/01/11 06:12:18;;;;;;;;;;;16.50;41.30;;;;;;1585148;73;743;-75
2024/01/11 06:14:20;;;;;;;;;;;16.50;41.30;;;;;;1603610;73;704;-75
2024/01/11 06:16:22;;;;;;;;;;;16.60;41.30;;;;;;1600075;73;1139;-74
2024/01/11 06:18:24;;;;;;;;;;;16.50;41.30;;;;;;1598672;73;708;-72
2024/01/11 06:20:26;;;;;;;;;;;16.50;41.30;;;;;;1599117;73;681;-74
2024/01/11 06:22:28;;;;;;;;;;;16.60;41.30;;;;;;1594313;73;603;-74
2024/01/11 06:24:30;;;;;;;;;;;16.50;41.30;;;;;;1600954;73;1936;-75
2024/01/11 06:26:31;;;;;;;;;;;16.50;41.30;;;;;;1608305;72;1173;-71
2024/01/11 06:28:33;;;;;;;;;;;16.60;41.30;;;;;;1606248;73;716;-74
2024/01/11 06:30:36;;;;;;;;;;;16.60;41.30;;;;;;1598722;73;709;-75
2024/01/11 06:32:37;;;;;;;;;;;16.50;41.30;;;;;;1599453;73;744;-73
2024/01/11 06:34:45;;;;;;;;;;;16.50;41.30;;;;;;1603767;73;1423;-73
2024/01/11 06:36:44;;;;;;;;;;;16.60;41.30;;;;;;1603277;73;1604;-75
2024/01/11 06:38:45;;;;;;;;;;;16.50;41.30;;;;;;1600829;73;710;-75
2024/01/11 06:40:48;;;;;;;;;;;16.50;41.30;;;;;;1597911;73;761;-74
2024/01/11 06:42:50;;;;;;;;;;;16.50;41.30;;;;;;1599166;73;712;-70
2024/01/11 06:44:52;;;;;;;;;;;16.50;41.30;;;;;;1588536;73;1931;-74
2024/01/11 06:46:54;;;;;;;;;;;16.50;41.30;;;;;;1603353;73;1109;-73
2024/01/11 06:48:56;;;;;;;;;;;16.50;41.40;;;;;;1609432;73;611;-73
2024/01/11 06:50:57;;;;;;;;;;;16.50;41.40;;;;;;1604848;73;710;-70
2024/01/11 06:53:00;;;;;;;;;;;16.60;41.40;;;;;;1608316;73;798;-75
2024/01/11 06:55:02;;;;;;;;;;;16.50;41.30;;;;;;1605427;73;713;-75
2024/01/11 06:57:04;;;;;;;;;;;16.50;41.30;;;;;;1611050;73;1122;-69
2024/01/11 06:59:07;;;;;;;;;;;16.50;41.30;;;;;;1596916;73;725;-70
2024/01/11 07:01:09;;;;;;;;;;;16.50;41.40;;;;;;1604397;73;761;-73
2024/01/11 07:03:10;;;;;;;;;;;16.50;41.30;;;;;;1597747;73;657;-75
2024/01/11 07:05:12;;;;;;;;;;;16.50;41.40;;;;;;1592633;73;1986;-75
2024/01/11 07:07:14;;;;;;;;;;;16.50;41.40;;;;;;1601096;73;1111;-74
2024/01/11 07:09:16;;;;;;;;;;;16.50;41.30;;;;;;1604201;73;706;-75
2024/01/11 07:11:18;;;;;;;;;;;16.50;41.40;;;;;;1604269;73;685;-72
2024/01/11 07:13:20;;;;;;;;;;;16.50;41.40;;;;;;1599898;73;644;-72
2024/01/11 07:15:23;;;;;;;;;;;16.50;41.40;;;;;;1590019;73;724;-72
2024/01/11 07:17:25;;;;;;;;;;;16.50;41.30;;;;;;1611247;73;1142;-75
2024/01/11 07:19:27;;;;;;;;;;;16.50;41.40;;;;;;1604605;73;750;-73
2024/01/11 07:21:31;;;;;;;;;;;16.50;41.40;;;;;;1604773;73;683;-74
2024/01/11 07:23:33;;;;;;;;;;;16.50;41.50;;;;;;1601715;73;650;-75
2024/01/11 07:25:35;;;;;;;;;;;16.50;41.40;;;;;;1593102;73;1959;-73
2024/01/11 07:27:37;;;;;;;;;;;16.50;41.40;;;;;;1602867;73;1134;-73
2024/01/11 07:29:39;;;;;;;;;;;16.50;41.40;;;;;;1604073;73;1500;-70
2024/01/11 07:31:41;;;;;;;;;;;16.50;41.30;;;;;;1602065;73;732;-74
2024/01/11 07:33:43;;;;;;;;;;;16.50;41.40;;;;;;1599451;73;703;-76
2024/01/11 07:35:45;;;;;;;;;;;16.50;41.40;;;;;;1605023;73;655;-72
2024/01/11 07:37:47;;;;;;;;;;;16.40;41.40;;;;;;1595534;73;1085;-74
2024/01/11 07:39:49;;;;;;;;;;;16.50;41.50;;;;;;1605006;73;689;-75
2024/01/11 07:41:52;;;;;;;;;;;16.40;41.30;;;;;;1608663;73;713;-77
2024/01/11 07:43:58;;;;;;;;;;;16.50;41.40;;;;;;1602481;73;1906;-75
2024/01/11 07:45:57;;;;;;;;;;;16.40;41.30;;;;;;1601151;73;1531;-74
2024/01/11 07:48:00;;;;;;;;;;;16.60;41.40;;;;;;1597565;73;822;-71
2024/01/11 07:50:03;;;;;;;;;;;16.50;41.40;;;;;;1595784;73;750;-73
2024/01/11 07:52:05;;;;;;;;;;;16.50;41.30;;;;;;1613581;73;722;-74
2024/01/11 07:54:07;;;;;;;;;;;16.40;41.30;;;;;;1615798;73;748;-75
2024/01/11 07:56:09;;;;;;;;;;;16.50;41.40;;;;;;1601169;73;1116;-72
2024/01/11 07:58:12;;;;;;;;;;;16.40;41.30;;;;;;1603561;73;728;-72
2024/01/11 08:00:14;;;;;;;;;;;16.50;41.30;;;;;;1605240;73;742;-73
2024/01/11 08:02:16;;;;;;;;;;;16.40;41.30;;;;;;1604167;73;658;-71
2024/01/11 08:04:17;;;;;;;;;;;16.40;41.30;;;;;;1585839;73;2104;-73
2024/01/11 08:06:19;;;;;;;;;;;16.50;41.40;;;;;;1596060;73;1198;-74
2024/01/11 08:08:22;;;;;;;;;;;16.40;41.30;;;;;;1606560;73;816;-73
2024/01/11 08:10:23;;;;;;;;;;;16.40;41.40;;;;;;1593916;73;596;-73
2024/01/11 08:12:25;;;;;;;;;;;16.40;41.30;;;;;;1593636;73;710;-73
2024/01/11 08:14:27;;;;;;;;;;;16.50;41.40;;;;;;1598002;73;732;-70
2024/01/11 08:16:29;;;;;;;;;;;16.50;41.30;;;;;;1596365;73;1100;-73
2024/01/11 08:18:31;;;;;;;;;;;16.40;41.30;;;;;;1609493;73;709;-73
2024/01/11 08:20:33;;;;;;;;;;;16.50;41.40;;;;;;1599368;73;757;-73
2024/01/11 08:22:37;;;;;;;;;;;16.50;41.40;;;;;;1600843;73;715;-75
2024/01/11 08:24:39;;;;;;;;;;;16.40;41.30;;;;;;1599169;73;1912;-74
2024/01/11 08:26:41;;;;;;;;;;;16.40;41.40;;;;;;1593975;73;1526;-74
2024/01/11 08:28:43;;;;;;;;;;;16.40;41.30;;;;;;1601217;73;575;-75
2024/01/11 08:30:45;;;;;;;;;;;16.50;41.50;;;;;;1603957;73;705;-73
2024/01/11 08:32:47;;;;;;;;;;;16.40;41.40;;;;;;1593164;73;703;-70
2024/01/11 08:34:49;;;;;;;;;;;16.40;41.40;;;;;;1596276;73;701;-70
2024/01/11 08:36:51;;;;;;;;;;;16.50;41.40;;;;;;1604935;73;1207;-75
2024/01/11 08:38:53;;;;;;;;;;;16.50;41.50;;;;;;1613327;73;734;-72
2024/01/11 08:40:55;;;;;;;;;;;16.50;41.50;;;;;;1603976;73;715;-74
2024/01/11 08:42:58;;;;;;;;;;;16.50;41.50;;;;;;1602379;73;645;-74
2024/01/11 08:45:06;;;;;;;;;;;16.40;41.40;;;;;;1596411;73;1920;-72
2024/01/11 08:47:03;;;;;;;;;;;16.40;41.40;;;;;;1594745;73;1613;-75
2024/01/11 08:49:05;;;;;;;;;;;16.40;41.50;;;;;;1607433;73;734;-71
2024/01/11 08:51:07;;;;;;;;;;;16.50;41.50;;;;;;1607220;73;707;-75
2024/01/11 08:53:09;;;;;;;;;;;16.40;41.40;;;;;;1609819;73;731;-75
2024/01/11 08:55:12;;;;;;;;;;;16.40;41.50;;;;;;1611506;73;590;-73
2024/01/11 08:57:15;;;;;;;;;;;16.40;41.50;;;;;;1599132;73;1115;-75
2024/01/11 08:59:16;;;;;;;;;;;16.40;41.40;;;;;;1588329;73;720;-74
2024/01/11 09:01:18;;;;;;;;;;;16.50;41.40;;;;;;1596999;73;594;-76
2024/01/11 09:03:20;;;;;;;;;;;16.40;41.30;;;;;;1603307;73;720;-74
2024/01/11 09:05:22;;;;;;;;;;;16.40;41.40;;;;;;1590343;73;1934;-72
2024/01/11 09:07:24;;;;;;;;;;;16.50;41.50;;;;;;1593197;73;1152;-72
2024/01/11 09:09:26;;;;;;;;;;;16.40;41.30;;;;;;1590367;73;635;-73
2024/01/11 09:11:28;;;;;;;;;;;16.50;41.40;;;;;;1606996;73;571;-74
2024/01/11 09:13:29;;;;;;;;;;;16.50;41.40;;;;;;1596787;73;613;-74
2024/01/11 09:15:32;;;;;;;;;;;16.50;41.40;;;;;;1599011;73;722;-71
2024/01/11 09:17:34;;;;;;;;;;;16.50;41.40;;;;;;1607107;73;1144;-72
2024/01/11 09:19:41;;;;;;;;;;;16.50;41.40;;;;;;1597896;73;731;-72
2024/01/11 09:21:41;;;;;;;;;;;16.50;41.30;;;;;;1602630;73;1471;-71
2024/01/11 09:23:43;;;;;;;;;;;16.60;41.40;;;;;;1602650;73;687;-74
2024/01/11 09:25:44;;;;;;;;;;;16.50;41.30;;;;;;1602652;73;1934;-75
2024/01/11 09:27:46;;;;;;;;;;;16.50;41.40;;;;;;1602237;73;1120;-73
2024/01/11 09:29:48;;;;;;;;;;;16.50;41.30;;;;;;1594269;73;615;-77
2024/01/11 09:31:50;;;;;;;;;;;16.60;41.30;;;;;;1606490;73;730;-76
2024/01/11 09:33:52;;;;;;;;;;;16.50;41.30;;;;;;1603510;73;733;-74
2024/01/11 09:35:56;;;;;;;;;;;16.50;41.30;;;;;;1604844;73;668;-73
2024/01/11 09:37:57;;;;;;;;;;;16.60;41.30;;;;;;1597875;73;1178;-70
2024/01/11 09:40:00;;;;;;;;;;;16.60;41.30;;;;;;1600702;73;680;-70
2024/01/11 09:42:04;;;;;;;;;;;16.60;41.30;;;;;;1604191;73;719;-75
2024/01/11 09:44:06;;;;;;;;;;;16.60;41.30;;;;;;1599767;73;1144;-73
2024/01/11 09:46:08;;;;;;;;;;;16.60;41.30;;;;;;1593428;73;1944;-75
2024/01/11 09:48:10;;;;;;;;;;;16.60;41.30;;;;;;1594068;73;726;-76
2024/01/11 09:50:17;;;;;;;;;;;16.60;41.20;;;;;;1613708;73;758;-74
2024/01/11 09:52:15;;;;;;;;;;;16.60;41.20;;;;;;1586132;73;1662;-76
2024/01/11 09:54:17;;;;;;;;;;;16.60;41.20;;;;;;1602206;73;743;-70
2024/01/11 09:56:19;;;;;;;;;;;16.60;41.20;;;;;;1608430;73;1114;-74
2024/01/11 09:58:21;;;;;;;;;;;16.60;41.30;;;;;;1612254;73;719;-73
2024/01/11 10:00:23;;;;;;;;;;;16.60;41.30;;;;;;1591001;73;710;-76
2024/01/11 10:02:28;;;;;;;;;;;16.60;41.20;;;;;;1596354;73;578;-75
2024/01/11 10:04:30;;;;;;;;;;;16.60;41.20;;;;;;1603745;73;637;-75
2024/01/11 10:06:33;;;;;;;;;;;16.60;41.20;;;;;;1606788;73;1936;-75
2024/01/11 10:08:35;;;;;;;;;;;16.60;41.20;;;;;;1600181;73;1193;-70
2024/01/11 10:10:37;;;;;;;;;;;16.60;41.20;;;;;;1605750;73;580;-73
2024/01/11 10:12:39;;;;;;;;;;;16.60;41.20;;;;;;1609198;73;748;-74
2024/01/11 10:14:42;;;;;;;;;;;16.60;41.30;;;;;;1594555;73;709;-73
2024/01/11 10:16:43;;;;;;;;;;;16.50;41.20;;;;;;1595652;73;1165;-75
2024/01/11 10:18:45;;;;;;;;;;;16.60;41.20;;;;;;1609177;73;1424;-71
2024/01/11 10:20:49;;;;;;;;;;;16.60;41.20;;;;;;1610881;73;832;-73
2024/01/11 10:22:52;;;;;;;;;;;16.60;41.20;;;;;;1599419;73;705;-73
2024/01/11 10:25:14;;;;;;;;;;;16.60;41.20;;;;;;1608169;73;1913;-73
2024/01/11 10:27:15;;;;;;;;;;;16.60;41.20;;;;;;1606934;73;1149;-70
2024/01/11 10:29:18;;;;;;;;;;;16.50;41.20;;;;;;1591171;73;708;-70
2024/01/11 10:31:21;;;;;;;;;;;16.60;41.20;;;;;;1592474;73;566;-73
2024/01/11 10:33:23;;;;;;;;;;;16.60;41.20;;;;;;1596781;73;699;-74
2024/01/11 10:35:25;;;;;;;;;;;16.60;41.20;;;;;;1600208;73;742;-75
2024/01/11 10:37:27;;;;;;;;;;;16.60;41.30;;;;;;1592072;73;1165;-73
2024/01/11 10:39:29;;;;;;;;;;;16.60;41.20;;;;;;1605278;73;813;-73
2024/01/11 10:41:33;;;;;;;;;;;16.60;41.20;;;;;;1606585;73;719;-73
2024/01/11 10:43:36;;;;;;;;;;;16.60;41.20;;;;;;1608082;73;735;-74
2024/01/11 10:45:41;;;;;;;;;;;16.60;41.20;;;;;;1609479;73;1933;-72
2024/01/11 10:47:44;;;;;;;;;;;16.60;41.20;;;;;;1605361;73;1110;-74
2024/01/11 10:49:46;;;;;;;;;;;16.60;41.20;;;;;;1584308;73;1324;-73
2024/01/11 10:51:50;;;;;;;;;;;16.50;41.20;;;;;;1593680;73;707;-72
2024/01/11 10:53:53;;;;;;;;;;;16.50;41.20;;;;;;1599737;73;1097;-72
2024/01/11 10:55:56;;;;;;;;;;;16.60;41.20;;;;;;1600546;73;742;-74
2024/01/11 10:57:58;;;;;;;;;;;16.60;41.20;;;;;;1599033;73;1147;-74
2024/01/11 11:00:02;;;;;;;;;;;16.60;41.20;;;;;;1597708;73;609;-73
2024/01/11 11:02:06;;;;;;;;;;;16.60;41.20;;;;;;1600303;73;924;-70
2024/01/11 11:04:08;;;;;;;;;;;16.60;41.20;;;;;;1605292;73;1012;-74
2024/01/11 11:06:10;;;;;;;;;;;16.50;41.30;;;;;;1604052;73;1915;-74
2024/01/11 11:08:12;;;;;;;;;;;16.50;41.20;;;;;;1608151;73;677;-72
2024/01/11 11:10:14;;;;;;;;;;;16.50;41.20;;;;;;1613479;73;607;-73
2024/01/11 11:12:15;;;;;;;;;;;16.60;41.20;;;;;;1605800;73;706;-70
2024/01/11 11:14:17;;;;;;;;;;;16.50;41.20;;;;;;1605541;73;1570;-70
2024/01/11 11:16:19;;;;;;;;;;;16.40;41.10;;;;;;1602286;73;1159;-70
2024/01/11 11:18:21;;;;;;;;;;;16.60;41.20;;;;;;1605371;73;759;-73
2024/01/11 11:20:23;;;;;;;;;;;16.50;41.20;;;;;;1605791;73;764;-72
2024/01/11 11:22:27;;;;;;;;;;;16.50;41.20;;;;;;1606999;73;697;-72
2024/01/11 11:24:28;;;;;;;;;;;16.60;41.20;;;;;;1599773;73;980;-74
2024/01/11 11:26:32;;;;;;;;;;;16.50;41.20;;;;;;1612369;72;1935;-73
2024/01/11 11:28:38;;;;;;;;;;;16.50;41.20;;;;;;1575597;74;653;-75
2024/01/11 11:30:41;;;;;;;;;;;16.60;41.20;;;;;;1601328;73;1155;-69
2024/01/11 11:32:46;;;;;;;;;;;16.60;41.20;;;;;;1595106;73;660;-75
2024/01/11 11:34:48;;;;;;;;;;;16.50;41.20;;;;;;1570573;74;1183;-74
2024/01/11 11:36:54;;;;;;;;;;;16.50;41.30;;;;;;1607748;73;1131;-74
2024/01/11 11:38:59;;;;;;;;;;;16.50;41.20;;;;;;1603353;73;1476;-72
2024/01/11 11:40:58;;;;;;;;;;;16.50;41.30;;;;;;1603995;72;1596;-75
2024/01/11 11:43:02;;;;;;;;;;;16.50;41.30;;;;;;1601062;73;717;-72
2024/01/11 11:45:04;;;;;;;;;;;16.50;41.30;;;;;;1591003;73;739;-74
2024/01/11 11:47:22;;;;;;;;;;;16.50;41.30;;;;;;1596502;73;1975;-72
2024/01/11 11:49:25;;;;;;;;;;;16.60;41.20;;;;;;1610455;73;712;-72
2024/01/11 11:51:28;;;;;;;;;;;16.50;41.30;;;;;;1593847;73;1577;-71
2024/01/11 11:53:36;;;;;;;;;;;16.60;41.30;;;;;;1615575;73;717;-73
2024/01/11 11:55:38;;;;;;;;;;;16.50;41.30;;;;;;1606442;73;614;-74
2024/01/11 11:57:39;;;;;;;;;;;16.50;41.30;;;;;;1597524;73;1152;-73
2024/01/11 11:59:41;;;;;;;;;;;16.50;41.30;;;;;;1566326;74;1183;-74
2024/01/11 12:01:43;;;;;;;;;;;16.50;41.30;;;;;;1600590;73;706;-73
2024/01/11 12:03:49;;;;;;;;;;;16.50;41.20;;;;;;1599870;73;667;-72
2024/01/11 12:05:50;;;;;;;;;;;16.50;41.30;;;;;;1603536;73;1913;-71
2024/01/11 12:07:53;;;;;;;;;;;16.50;41.30;;;;;;1607856;73;1131;-70